SWA5150 KSAN-KSLC
Flight info
| Callsign | SWA5150 |
|---|---|
| Flight time | 1h 26m |
| Altitude | 38000 |
| Route | ZZOOO4 MTBAL CADEZ HAKMN/N0459F370 Q73 LAKRR MLF PITTT2 |
| Aircraft | B38M/M-SDE1FGHILORVWXY/HB1 |
Departure
| Time | 2026-04-26 12:39 |
|---|---|
| Airport | San Diego International Airport (KSAN) |
Arrival
| Time | 2026-04-26 14:05 |
|---|---|
| Airport | Salt Lake City International Airport (KSLC) |
| Time | Latitude | Longitude | Altitude | Speed | Heading |
|---|---|---|---|---|---|
| 2026-04-26 12:02 | 32.73335 | -117.19646 | 22 ft | 0 kts | 169° |
| 2026-04-26 12:06 | 32.73335 | -117.19647 | 22 ft | 0 kts | 169° |
| 2026-04-26 12:09 | 32.73336 | -117.19647 | 22 ft | 0 kts | 169° |
| 2026-04-26 12:27 | 32.73337 | -117.19647 | 22 ft | 0 kts | 169° |
| 2026-04-26 12:30 | 32.73341 | -117.19648 | 23 ft | 3 kts | 166° |
| 2026-04-26 12:30 | 32.73355 | -117.19650 | 25 ft | 3 kts | 171° |
| 2026-04-26 12:30 | 32.73375 | -117.19654 | 29 ft | 3 kts | 171° |
| 2026-04-26 12:31 | 32.73414 | -117.19665 | 27 ft | 3 kts | 150° |
| 2026-04-26 12:31 | 32.73427 | -117.19679 | 25 ft | 3 kts | 109° |
| 2026-04-26 12:31 | 32.73428 | -117.19683 | 25 ft | 0 kts | 104° |
| 2026-04-26 12:33 | 32.73425 | -117.19671 | 25 ft | 5 kts | 105° |
| 2026-04-26 12:33 | 32.73410 | -117.19611 | 27 ft | 9 kts | 106° |
| 2026-04-26 12:33 | 32.73393 | -117.19540 | 27 ft | 8 kts | 106° |
| 2026-04-26 12:34 | 32.73377 | -117.19471 | 27 ft | 12 kts | 106° |
| 2026-04-26 12:34 | 32.73353 | -117.19376 | 26 ft | 9 kts | 106° |
| 2026-04-26 12:34 | 32.73335 | -117.19302 | 23 ft | 12 kts | 106° |
| 2026-04-26 12:34 | 32.73314 | -117.19216 | 24 ft | 10 kts | 106° |
| 2026-04-26 12:35 | 32.73294 | -117.19136 | 25 ft | 9 kts | 106° |
| 2026-04-26 12:35 | 32.73275 | -117.19054 | 25 ft | 10 kts | 106° |
| 2026-04-26 12:35 | 32.73250 | -117.18951 | 26 ft | 16 kts | 106° |
| 2026-04-26 12:35 | 32.73224 | -117.18843 | 27 ft | 14 kts | 106° |
| 2026-04-26 12:36 | 32.73199 | -117.18743 | 19 ft | 13 kts | 106° |
| 2026-04-26 12:36 | 32.73177 | -117.18651 | 27 ft | 15 kts | 106° |
| 2026-04-26 12:36 | 32.73159 | -117.18573 | 21 ft | 10 kts | 105° |
| 2026-04-26 12:36 | 32.73135 | -117.18476 | 21 ft | 12 kts | 107° |
| 2026-04-26 12:37 | 32.73113 | -117.18386 | 22 ft | 11 kts | 106° |
| 2026-04-26 12:37 | 32.73091 | -117.18295 | 20 ft | 13 kts | 105° |
| 2026-04-26 12:37 | 32.73067 | -117.18190 | 19 ft | 12 kts | 106° |
| 2026-04-26 12:37 | 32.73084 | -117.18110 | 17 ft | 12 kts | 24° |
| 2026-04-26 12:38 | 32.73120 | -117.18111 | 17 ft | 6 kts | 351° |
| 2026-04-26 12:38 | 32.73157 | -117.18145 | 19 ft | 6 kts | 288° |
| 2026-04-26 12:38 | 32.73159 | -117.18153 | 19 ft | 11 kts | 287° |
| 2026-04-26 12:38 | 32.73211 | -117.18363 | 23 ft | 68 kts | 286° |
| 2026-04-26 12:39 | 32.73416 | -117.19210 | 23 ft | 143 kts | 286° |
| 2026-04-26 12:39 | 32.73725 | -117.20490 | 213 ft | 170 kts | 285° |
| 2026-04-26 12:39 | 32.74059 | -117.21903 | 662 ft | 186 kts | 283° |
| 2026-04-26 12:39 | 32.74417 | -117.23446 | 1132 ft | 199 kts | 284° |
| 2026-04-26 12:40 | 32.74818 | -117.25064 | 1550 ft | 208 kts | 284° |
| 2026-04-26 12:40 | 32.75226 | -117.26726 | 1881 ft | 211 kts | 285° |
| 2026-04-26 12:40 | 32.75639 | -117.28423 | 2259 ft | 216 kts | 285° |
| 2026-04-26 12:40 | 32.76057 | -117.30144 | 2723 ft | 216 kts | 284° |
| 2026-04-26 12:41 | 32.76441 | -117.31869 | 3140 ft | 216 kts | 278° |
| 2026-04-26 12:41 | 32.76375 | -117.33634 | 3534 ft | 216 kts | 252° |
| 2026-04-26 12:41 | 32.75553 | -117.35120 | 3950 ft | 221 kts | 223° |
| 2026-04-26 12:41 | 32.74160 | -117.35938 | 4385 ft | 231 kts | 194° |
| 2026-04-26 12:42 | 32.72539 | -117.35792 | 4826 ft | 243 kts | 163° |
| 2026-04-26 12:42 | 32.71169 | -117.34589 | 5279 ft | 252 kts | 130° |
| 2026-04-26 12:42 | 32.70123 | -117.32936 | 5778 ft | 248 kts | 136° |
| 2026-04-26 12:42 | 32.68925 | -117.31523 | 6252 ft | 245 kts | 140° |
| 2026-04-26 12:43 | 32.67704 | -117.30095 | 6725 ft | 241 kts | 139° |
| 2026-04-26 12:43 | 32.66530 | -117.28694 | 7160 ft | 238 kts | 139° |
| 2026-04-26 12:43 | 32.65394 | -117.27325 | 7618 ft | 233 kts | 139° |
| 2026-04-26 12:43 | 32.64260 | -117.25949 | 8083 ft | 240 kts | 137° |
| 2026-04-26 12:44 | 32.63285 | -117.24219 | 8556 ft | 268 kts | 110° |
| 2026-04-26 12:44 | 32.62946 | -117.21965 | 9158 ft | 288 kts | 97° |
| 2026-04-26 12:44 | 32.62717 | -117.19532 | 9740 ft | 307 kts | 97° |
| 2026-04-26 12:44 | 32.62471 | -117.16956 | 10376 ft | 322 kts | 98° |
| 2026-04-26 12:45 | 32.62217 | -117.14232 | 10839 ft | 342 kts | 97° |
| 2026-04-26 12:45 | 32.62033 | -117.11341 | 11301 ft | 363 kts | 87° |
| 2026-04-26 12:45 | 32.62596 | -117.08384 | 11945 ft | 372 kts | 67° |
| 2026-04-26 12:45 | 32.63534 | -117.05485 | 12695 ft | 381 kts | 68° |
| 2026-04-26 12:46 | 32.64481 | -117.02518 | 13452 ft | 388 kts | 68° |
| 2026-04-26 12:46 | 32.65454 | -116.99504 | 14133 ft | 396 kts | 67° |
| 2026-04-26 12:46 | 32.66397 | -116.96411 | 14828 ft | 401 kts | 75° |
| 2026-04-26 12:46 | 32.66697 | -116.93114 | 15535 ft | 404 kts | 91° |
| 2026-04-26 12:47 | 32.66761 | -116.89757 | 16167 ft | 412 kts | 90° |
| 2026-04-26 12:47 | 32.66851 | -116.86327 | 16777 ft | 417 kts | 90° |
| 2026-04-26 12:47 | 32.66947 | -116.82874 | 17453 ft | 422 kts | 87° |
| 2026-04-26 12:47 | 32.67529 | -116.79487 | 18071 ft | 427 kts | 68° |
| 2026-04-26 12:48 | 32.68953 | -116.76405 | 18638 ft | 427 kts | 48° |
| 2026-04-26 12:48 | 32.71068 | -116.73974 | 19120 ft | 421 kts | 28° |
| 2026-04-26 12:48 | 32.73617 | -116.72341 | 19651 ft | 416 kts | 16° |
| 2026-04-26 12:48 | 32.76281 | -116.70948 | 20164 ft | 420 kts | 15° |
| 2026-04-26 12:49 | 32.78964 | -116.69584 | 20827 ft | 421 kts | 15° |
| 2026-04-26 12:49 | 32.81694 | -116.68219 | 21287 ft | 428 kts | 14° |
| 2026-04-26 12:49 | 32.84454 | -116.66854 | 21851 ft | 431 kts | 14° |
| 2026-04-26 12:49 | 32.87241 | -116.65485 | 22362 ft | 436 kts | 14° |
| 2026-04-26 12:50 | 32.90053 | -116.64103 | 22894 ft | 440 kts | 14° |
| 2026-04-26 12:50 | 32.92896 | -116.62707 | 23405 ft | 445 kts | 14° |
| 2026-04-26 12:50 | 32.95769 | -116.61295 | 23877 ft | 448 kts | 13° |
| 2026-04-26 12:50 | 32.98663 | -116.59873 | 24280 ft | 453 kts | 13° |
| 2026-04-26 12:51 | 33.01580 | -116.58396 | 24705 ft | 457 kts | 14° |
| 2026-04-26 12:51 | 33.04501 | -116.56861 | 25098 ft | 461 kts | 14° |
| 2026-04-26 12:51 | 33.07413 | -116.55340 | 25417 ft | 464 kts | 15° |
| 2026-04-26 12:51 | 33.10369 | -116.53796 | 25890 ft | 465 kts | 15° |
| 2026-04-26 12:52 | 33.13349 | -116.52242 | 26199 ft | 470 kts | 15° |
| 2026-04-26 12:52 | 33.16356 | -116.50673 | 26617 ft | 473 kts | 14° |
| 2026-04-26 12:52 | 33.19385 | -116.49091 | 26958 ft | 477 kts | 14° |
| 2026-04-26 12:52 | 33.22432 | -116.47496 | 27304 ft | 481 kts | 14° |
| 2026-04-26 12:53 | 33.25509 | -116.45892 | 27628 ft | 484 kts | 14° |
| 2026-04-26 12:53 | 33.28599 | -116.44274 | 28025 ft | 487 kts | 15° |
| 2026-04-26 12:53 | 33.31702 | -116.42642 | 28456 ft | 488 kts | 15° |
| 2026-04-26 12:53 | 33.34826 | -116.41000 | 28782 ft | 492 kts | 15° |
| 2026-04-26 12:54 | 33.37930 | -116.39160 | 29042 ft | 506 kts | 25° |
| 2026-04-26 12:54 | 33.40702 | -116.36496 | 29475 ft | 520 kts | 41° |
| 2026-04-26 12:54 | 33.43000 | -116.33095 | 29722 ft | 531 kts | 51° |
| 2026-04-26 12:54 | 33.45180 | -116.29508 | 30056 ft | 533 kts | 50° |
| 2026-04-26 12:55 | 33.47364 | -116.25911 | 30385 ft | 536 kts | 50° |
| 2026-04-26 12:55 | 33.49557 | -116.22267 | 30545 ft | 542 kts | 50° |
| 2026-04-26 12:55 | 33.51764 | -116.18579 | 30754 ft | 545 kts | 51° |
| 2026-04-26 12:55 | 33.53970 | -116.14889 | 31098 ft | 546 kts | 51° |
| 2026-04-26 12:56 | 33.56191 | -116.11171 | 31282 ft | 551 kts | 51° |
| 2026-04-26 12:56 | 33.58422 | -116.07429 | 31595 ft | 552 kts | 51° |
| 2026-04-26 12:56 | 33.60724 | -116.03744 | 31837 ft | 551 kts | 43° |
| 2026-04-26 12:56 | 33.63459 | -116.00581 | 32209 ft | 544 kts | 36° |
| 2026-04-26 12:57 | 33.66237 | -115.97478 | 32549 ft | 547 kts | 38° |
| 2026-04-26 12:57 | 33.68983 | -115.94296 | 32823 ft | 549 kts | 38° |
| 2026-04-26 12:57 | 33.71751 | -115.91103 | 33003 ft | 554 kts | 38° |
| 2026-04-26 12:58 | 33.77315 | -115.84687 | 33620 ft | 555 kts | 38° |
| 2026-04-26 12:58 | 33.80100 | -115.81470 | 33937 ft | 555 kts | 38° |
| 2026-04-26 12:58 | 33.82885 | -115.78251 | 34238 ft | 555 kts | 38° |
| 2026-04-26 12:58 | 33.85627 | -115.75078 | 34525 ft | 554 kts | 38° |
| 2026-04-26 12:59 | 33.88403 | -115.71863 | 34842 ft | 553 kts | 38° |
| 2026-04-26 12:59 | 33.91172 | -115.68654 | 35163 ft | 552 kts | 38° |
| 2026-04-26 12:59 | 33.93937 | -115.65446 | 35475 ft | 551 kts | 38° |
| 2026-04-26 12:59 | 33.96700 | -115.62238 | 35861 ft | 550 kts | 38° |
| 2026-04-26 13:00 | 33.99449 | -115.59042 | 36179 ft | 548 kts | 38° |
| 2026-04-26 13:00 | 34.02192 | -115.55850 | 36445 ft | 548 kts | 39° |
| 2026-04-26 13:00 | 34.04932 | -115.52660 | 36723 ft | 547 kts | 38° |
| 2026-04-26 13:00 | 34.07665 | -115.49474 | 36981 ft | 546 kts | 38° |
| 2026-04-26 13:01 | 34.10394 | -115.46290 | 37225 ft | 546 kts | 38° |
| 2026-04-26 13:01 | 34.13121 | -115.43105 | 37493 ft | 545 kts | 38° |
| 2026-04-26 13:01 | 34.15841 | -115.39928 | 37739 ft | 544 kts | 38° |
| 2026-04-26 13:01 | 34.18676 | -115.36943 | 37768 ft | 536 kts | 28° |
| 2026-04-26 13:02 | 34.21830 | -115.34722 | 37811 ft | 515 kts | 12° |
| 2026-04-26 13:02 | 34.25198 | -115.33552 | 37859 ft | 496 kts | 360° |
| 2026-04-26 13:02 | 34.31982 | -115.32081 | 37786 ft | 493 kts | 0° |
| 2026-04-26 13:03 | 34.38753 | -115.30692 | 37797 ft | 493 kts | 359° |
| 2026-04-26 13:03 | 34.45522 | -115.29329 | 37798 ft | 493 kts | 359° |
| 2026-04-26 13:04 | 34.52290 | -115.27971 | 37828 ft | 492 kts | 0° |
| 2026-04-26 13:04 | 34.59024 | -115.26618 | 37797 ft | 490 kts | 0° |
| 2026-04-26 13:05 | 34.65758 | -115.25265 | 37792 ft | 491 kts | 0° |
| 2026-04-26 13:05 | 34.72492 | -115.23908 | 37802 ft | 490 kts | 0° |
| 2026-04-26 13:06 | 34.79231 | -115.22550 | 37810 ft | 491 kts | 0° |
| 2026-04-26 13:06 | 34.85963 | -115.21190 | 37812 ft | 491 kts | 0° |
| 2026-04-26 13:07 | 34.92705 | -115.19826 | 37816 ft | 491 kts | 0° |
| 2026-04-26 13:07 | 34.99449 | -115.18459 | 37868 ft | 491 kts | 1° |
| 2026-04-26 13:08 | 35.06206 | -115.17087 | 37827 ft | 493 kts | 1° |
| 2026-04-26 13:08 | 35.12988 | -115.15707 | 37829 ft | 494 kts | 1° |
| 2026-04-26 13:09 | 35.19715 | -115.14337 | 37833 ft | 494 kts | 1° |
| 2026-04-26 13:09 | 35.26493 | -115.12954 | 37834 ft | 494 kts | 1° |
| 2026-04-26 13:10 | 35.33263 | -115.11570 | 37829 ft | 493 kts | 1° |
| 2026-04-26 13:10 | 35.40033 | -115.10184 | 37825 ft | 493 kts | 1° |
| 2026-04-26 13:11 | 35.46807 | -115.08749 | 37835 ft | 497 kts | 5° |
| 2026-04-26 13:11 | 35.50113 | -115.07369 | 37779 ft | 508 kts | 22° |
| 2026-04-26 13:11 | 35.53028 | -115.04874 | 37817 ft | 517 kts | 40° |
| 2026-04-26 13:12 | 35.57865 | -114.98247 | 37740 ft | 519 kts | 45° |
| 2026-04-26 13:12 | 35.60291 | -114.94983 | 37852 ft | 517 kts | 45° |
| 2026-04-26 13:12 | 35.62706 | -114.91697 | 37806 ft | 518 kts | 45° |
| 2026-04-26 13:13 | 35.67512 | -114.85131 | 37801 ft | 516 kts | 45° |
| 2026-04-26 13:13 | 35.72320 | -114.78555 | 37787 ft | 517 kts | 45° |
| 2026-04-26 13:14 | 35.77122 | -114.71973 | 37744 ft | 517 kts | 45° |
| 2026-04-26 13:14 | 35.81921 | -114.65383 | 37752 ft | 517 kts | 45° |
| 2026-04-26 13:15 | 35.86721 | -114.58781 | 37724 ft | 517 kts | 45° |
| 2026-04-26 13:15 | 35.90706 | -114.53288 | 37704 ft | 517 kts | 46° |
| 2026-04-26 13:16 | 35.96279 | -114.45592 | 37690 ft | 517 kts | 46° |
| 2026-04-26 13:16 | 36.01061 | -114.38974 | 37677 ft | 517 kts | 46° |
| 2026-04-26 13:17 | 36.08417 | -114.29227 | 37613 ft | 513 kts | 32° |
| 2026-04-26 13:18 | 36.14628 | -114.25417 | 37716 ft | 499 kts | 19° |
| 2026-04-26 13:18 | 36.17786 | -114.23636 | 37600 ft | 496 kts | 19° |
| 2026-04-26 13:19 | 36.27285 | -114.18418 | 37658 ft | 498 kts | 18° |
| 2026-04-26 13:19 | 36.33640 | -114.14956 | 37669 ft | 499 kts | 19° |
| 2026-04-26 13:20 | 36.39995 | -114.11488 | 37685 ft | 498 kts | 19° |
| 2026-04-26 13:20 | 36.46337 | -114.08022 | 37694 ft | 498 kts | 19° |
| 2026-04-26 13:21 | 36.52682 | -114.04546 | 37669 ft | 499 kts | 19° |
| 2026-04-26 13:21 | 36.59000 | -114.01081 | 37693 ft | 500 kts | 19° |
| 2026-04-26 13:22 | 36.65372 | -113.97579 | 37700 ft | 502 kts | 19° |
| 2026-04-26 13:22 | 36.71768 | -113.94059 | 37698 ft | 503 kts | 19° |
| 2026-04-26 13:23 | 36.78166 | -113.90529 | 37697 ft | 503 kts | 19° |
| 2026-04-26 13:23 | 36.84563 | -113.86994 | 37700 ft | 503 kts | 19° |
| 2026-04-26 13:24 | 36.90955 | -113.83455 | 37705 ft | 502 kts | 19° |
| 2026-04-26 13:24 | 36.97327 | -113.79919 | 37727 ft | 502 kts | 20° |
| 2026-04-26 13:25 | 37.03713 | -113.76373 | 37725 ft | 502 kts | 19° |
| 2026-04-26 13:25 | 37.10089 | -113.72823 | 37732 ft | 502 kts | 19° |
| 2026-04-26 13:26 | 37.16469 | -113.69265 | 37729 ft | 500 kts | 20° |
| 2026-04-26 13:26 | 37.22819 | -113.65716 | 37713 ft | 500 kts | 20° |
| 2026-04-26 13:27 | 37.29176 | -113.62157 | 37647 ft | 501 kts | 20° |
| 2026-04-26 13:27 | 37.32357 | -113.60374 | 37542 ft | 500 kts | 20° |
| 2026-04-26 13:27 | 37.35525 | -113.58597 | 37468 ft | 499 kts | 20° |
| 2026-04-26 13:27 | 37.38703 | -113.56812 | 37287 ft | 500 kts | 20° |
| 2026-04-26 13:28 | 37.41866 | -113.55034 | 36953 ft | 497 kts | 20° |
| 2026-04-26 13:28 | 37.45023 | -113.53257 | 36637 ft | 496 kts | 20° |
| 2026-04-26 13:28 | 37.48172 | -113.51484 | 36312 ft | 496 kts | 20° |
| 2026-04-26 13:28 | 37.50258 | -113.50308 | 36105 ft | 496 kts | 20° |
| 2026-04-26 13:29 | 37.53414 | -113.48528 | 35787 ft | 497 kts | 21° |
| 2026-04-26 13:29 | 37.56564 | -113.46749 | 35474 ft | 496 kts | 21° |
| 2026-04-26 13:29 | 37.59719 | -113.44967 | 35177 ft | 497 kts | 21° |
| 2026-04-26 13:29 | 37.62871 | -113.43184 | 34913 ft | 496 kts | 21° |
| 2026-04-26 13:30 | 37.67027 | -113.40831 | 34691 ft | 494 kts | 21° |
| 2026-04-26 13:30 | 37.72285 | -113.37850 | 34703 ft | 496 kts | 21° |
| 2026-04-26 13:31 | 37.78574 | -113.34278 | 34698 ft | 496 kts | 21° |
| 2026-04-26 13:31 | 37.84860 | -113.30700 | 34692 ft | 495 kts | 21° |
| 2026-04-26 13:32 | 37.91138 | -113.27121 | 34679 ft | 494 kts | 22° |
| 2026-04-26 13:32 | 37.97395 | -113.23547 | 34628 ft | 493 kts | 22° |
| 2026-04-26 13:33 | 38.03652 | -113.19966 | 34640 ft | 493 kts | 22° |
| 2026-04-26 13:33 | 38.09909 | -113.16382 | 34634 ft | 493 kts | 22° |
| 2026-04-26 13:34 | 38.16158 | -113.12789 | 34662 ft | 493 kts | 22° |
| 2026-04-26 13:34 | 38.22411 | -113.09192 | 34668 ft | 493 kts | 22° |
| 2026-04-26 13:35 | 38.28636 | -113.05604 | 34706 ft | 495 kts | 22° |
| 2026-04-26 13:35 | 38.34899 | -113.01989 | 34722 ft | 494 kts | 21° |
| 2026-04-26 13:36 | 38.41246 | -112.98619 | 34725 ft | 494 kts | 20° |
| 2026-04-26 13:36 | 38.47587 | -112.95235 | 34718 ft | 494 kts | 21° |
| 2026-04-26 13:37 | 38.53925 | -112.91842 | 34698 ft | 494 kts | 21° |
| 2026-04-26 13:37 | 38.60263 | -112.88443 | 34701 ft | 494 kts | 21° |
| 2026-04-26 13:38 | 38.66603 | -112.85036 | 34657 ft | 494 kts | 21° |
| 2026-04-26 13:38 | 38.72943 | -112.81623 | 34623 ft | 494 kts | 21° |
| 2026-04-26 13:39 | 38.79278 | -112.78206 | 34613 ft | 494 kts | 21° |
| 2026-04-26 13:39 | 38.85628 | -112.74779 | 34634 ft | 496 kts | 21° |
| 2026-04-26 13:40 | 38.91974 | -112.71353 | 34610 ft | 494 kts | 21° |
| 2026-04-26 13:40 | 38.98316 | -112.67924 | 34611 ft | 495 kts | 21° |
| 2026-04-26 13:41 | 39.04654 | -112.64486 | 34604 ft | 495 kts | 21° |
| 2026-04-26 13:41 | 39.10992 | -112.61044 | 34601 ft | 494 kts | 21° |
| 2026-04-26 13:41 | 39.14153 | -112.59325 | 34421 ft | 492 kts | 21° |
| 2026-04-26 13:42 | 39.17305 | -112.57609 | 34154 ft | 491 kts | 22° |
| 2026-04-26 13:42 | 39.20450 | -112.55894 | 33807 ft | 490 kts | 22° |
| 2026-04-26 13:42 | 39.23592 | -112.54181 | 33417 ft | 490 kts | 22° |
| 2026-04-26 13:42 | 39.26726 | -112.52470 | 32942 ft | 489 kts | 22° |
| 2026-04-26 13:43 | 39.29857 | -112.50787 | 32384 ft | 486 kts | 20° |
| 2026-04-26 13:43 | 39.33100 | -112.49601 | 31809 ft | 482 kts | 13° |
| 2026-04-26 13:43 | 39.36347 | -112.48553 | 30995 ft | 482 kts | 15° |
| 2026-04-26 13:43 | 39.39561 | -112.47477 | 29981 ft | 487 kts | 16° |
| 2026-04-26 13:44 | 39.42887 | -112.46370 | 29092 ft | 486 kts | 16° |
| 2026-04-26 13:44 | 39.46093 | -112.45306 | 28466 ft | 479 kts | 15° |
| 2026-04-26 13:44 | 39.49346 | -112.44226 | 27881 ft | 472 kts | 15° |
| 2026-04-26 13:44 | 39.52461 | -112.43189 | 27363 ft | 466 kts | 15° |
| 2026-04-26 13:45 | 39.55579 | -112.42151 | 26888 ft | 459 kts | 15° |
| 2026-04-26 13:45 | 39.58648 | -112.41129 | 26430 ft | 453 kts | 15° |
| 2026-04-26 13:45 | 39.61680 | -112.40118 | 25994 ft | 446 kts | 14° |
| 2026-04-26 13:45 | 39.64667 | -112.39121 | 25560 ft | 441 kts | 14° |
| 2026-04-26 13:46 | 39.67617 | -112.38135 | 25133 ft | 435 kts | 14° |
| 2026-04-26 13:46 | 39.70537 | -112.37159 | 24721 ft | 430 kts | 14° |
| 2026-04-26 13:46 | 39.73422 | -112.36194 | 24322 ft | 425 kts | 14° |
| 2026-04-26 13:46 | 39.76267 | -112.35241 | 23947 ft | 420 kts | 14° |
| 2026-04-26 13:47 | 39.79082 | -112.34298 | 23629 ft | 415 kts | 13° |
| 2026-04-26 13:47 | 39.81873 | -112.33362 | 23151 ft | 414 kts | 13° |
| 2026-04-26 13:47 | 39.84647 | -112.32430 | 22742 ft | 410 kts | 13° |
| 2026-04-26 13:47 | 39.87403 | -112.31503 | 22238 ft | 408 kts | 13° |
| 2026-04-26 13:48 | 39.90143 | -112.30583 | 21785 ft | 405 kts | 13° |
| 2026-04-26 13:48 | 39.92862 | -112.29668 | 21330 ft | 402 kts | 13° |
| 2026-04-26 13:48 | 39.95560 | -112.28759 | 20872 ft | 400 kts | 13° |
| 2026-04-26 13:48 | 39.98250 | -112.27852 | 20439 ft | 397 kts | 13° |
| 2026-04-26 13:49 | 40.00915 | -112.26953 | 20037 ft | 395 kts | 13° |
| 2026-04-26 13:49 | 40.03560 | -112.26060 | 19593 ft | 393 kts | 13° |
| 2026-04-26 13:49 | 40.06180 | -112.25173 | 19143 ft | 392 kts | 12° |
| 2026-04-26 13:49 | 40.08802 | -112.24286 | 18762 ft | 388 kts | 12° |
| 2026-04-26 13:50 | 40.11410 | -112.23403 | 18375 ft | 386 kts | 12° |
| 2026-04-26 13:50 | 40.13996 | -112.22527 | 17978 ft | 383 kts | 12° |
| 2026-04-26 13:50 | 40.16568 | -112.21654 | 17552 ft | 380 kts | 12° |
| 2026-04-26 13:50 | 40.19126 | -112.20786 | 17081 ft | 379 kts | 12° |
| 2026-04-26 13:51 | 40.21668 | -112.19923 | 16629 ft | 375 kts | 12° |
| 2026-04-26 13:51 | 40.24183 | -112.19068 | 15789 ft | 375 kts | 12° |
| 2026-04-26 13:51 | 40.26705 | -112.18211 | 15151 ft | 370 kts | 12° |
| 2026-04-26 13:51 | 40.29187 | -112.17366 | 14982 ft | 371 kts | 12° |
| 2026-04-26 13:52 | 40.31680 | -112.16517 | 14732 ft | 370 kts | 12° |
| 2026-04-26 13:52 | 40.34176 | -112.15666 | 14595 ft | 371 kts | 12° |
| 2026-04-26 13:52 | 40.36673 | -112.14815 | 14411 ft | 370 kts | 12° |
| 2026-04-26 13:52 | 40.39165 | -112.13965 | 14246 ft | 370 kts | 12° |
| 2026-04-26 13:53 | 40.41647 | -112.13118 | 14007 ft | 368 kts | 12° |
| 2026-04-26 13:53 | 40.44122 | -112.12271 | 13799 ft | 367 kts | 12° |
| 2026-04-26 13:53 | 40.46587 | -112.11427 | 13575 ft | 365 kts | 12° |
| 2026-04-26 13:53 | 40.49036 | -112.10595 | 13352 ft | 363 kts | 12° |
| 2026-04-26 13:54 | 40.51481 | -112.09764 | 13119 ft | 362 kts | 12° |
| 2026-04-26 13:54 | 40.53913 | -112.08937 | 12922 ft | 361 kts | 12° |
| 2026-04-26 13:54 | 40.56357 | -112.08263 | 12699 ft | 357 kts | 2° |
| 2026-04-26 13:55 | 40.61255 | -112.07955 | 12302 ft | 354 kts | 0° |
| 2026-04-26 13:55 | 40.62917 | -112.07853 | 12163 ft | 353 kts | 358° |
| 2026-04-26 13:55 | 40.68541 | -112.08470 | 11841 ft | 349 kts | 352° |
| 2026-04-26 13:56 | 40.70954 | -112.08741 | 11704 ft | 346 kts | 352° |
| 2026-04-26 13:56 | 40.73318 | -112.08992 | 11603 ft | 335 kts | 353° |
| 2026-04-26 13:56 | 40.75607 | -112.09244 | 11527 ft | 327 kts | 352° |
| 2026-04-26 13:56 | 40.77914 | -112.09525 | 11442 ft | 338 kts | 352° |
| 2026-04-26 13:57 | 40.80274 | -112.09807 | 11366 ft | 344 kts | 352° |
| 2026-04-26 13:57 | 40.82668 | -112.10089 | 11115 ft | 345 kts | 353° |
| 2026-04-26 13:57 | 40.85035 | -112.10463 | 11003 ft | 341 kts | 341° |
| 2026-04-26 13:57 | 40.87040 | -112.11909 | 10955 ft | 318 kts | 311° |
| 2026-04-26 13:58 | 40.88299 | -112.14167 | 10945 ft | 299 kts | 300° |
| 2026-04-26 13:58 | 40.89738 | -112.16164 | 10440 ft | 309 kts | 325° |
| 2026-04-26 13:58 | 40.91805 | -112.17036 | 9913 ft | 318 kts | 355° |
| 2026-04-26 13:58 | 40.93933 | -112.16461 | 9506 ft | 313 kts | 27° |
| 2026-04-26 13:59 | 40.95504 | -112.14616 | 9261 ft | 296 kts | 59° |
| 2026-04-26 13:59 | 40.96470 | -112.12327 | 9209 ft | 275 kts | 59° |
| 2026-04-26 13:59 | 40.97610 | -112.10395 | 9119 ft | 259 kts | 49° |
| 2026-04-26 14:00 | 40.99921 | -112.04921 | 8896 ft | 204 kts | 106° |
| 2026-04-26 14:00 | 40.99338 | -112.03333 | 8658 ft | 181 kts | 141° |
| 2026-04-26 14:00 | 40.98690 | -112.02713 | 8510 ft | 161 kts | 158° |
| 2026-04-26 14:01 | 40.97431 | -112.01847 | 8162 ft | 150 kts | 158° |
| 2026-04-26 14:01 | 40.96511 | -112.01219 | 7817 ft | 148 kts | 156° |
| 2026-04-26 14:01 | 40.95598 | -112.00600 | 7478 ft | 147 kts | 158° |
| 2026-04-26 14:01 | 40.94684 | -112.00040 | 7176 ft | 143 kts | 161° |
| 2026-04-26 14:02 | 40.93752 | -111.99490 | 6912 ft | 151 kts | 162° |
| 2026-04-26 14:02 | 40.92702 | -111.99147 | 6715 ft | 161 kts | 172° |
| 2026-04-26 14:02 | 40.91557 | -111.98948 | 6484 ft | 170 kts | 174° |
| 2026-04-26 14:02 | 40.90350 | -111.98805 | 6242 ft | 177 kts | 175° |
| 2026-04-26 14:03 | 40.89110 | -111.98663 | 5993 ft | 181 kts | 175° |
| 2026-04-26 14:03 | 40.87851 | -111.98517 | 5749 ft | 181 kts | 174° |
| 2026-04-26 14:03 | 40.86607 | -111.98373 | 5468 ft | 176 kts | 174° |
| 2026-04-26 14:03 | 40.85455 | -111.98238 | 5245 ft | 157 kts | 174° |
| 2026-04-26 14:04 | 40.84423 | -111.98119 | 5015 ft | 144 kts | 174° |
| 2026-04-26 14:04 | 40.83445 | -111.98006 | 4848 ft | 138 kts | 172° |
| 2026-04-26 14:04 | 40.82513 | -111.97890 | 4578 ft | 143 kts | 175° |
| 2026-04-26 14:04 | 40.81527 | -111.97782 | 4441 ft | 140 kts | 173° |
| 2026-04-26 14:05 | 40.80593 | -111.97676 | 4268 ft | 129 kts | 174° |
| 2026-04-26 14:05 | 40.79771 | -111.97581 | 4231 ft | 100 kts | 175° |
| 2026-04-26 14:05 | 40.79209 | -111.97515 | 4234 ft | 74 kts | 175° |
| 2026-04-26 14:05 | 40.78836 | -111.97475 | 4236 ft | 36 kts | 177° |
| 2026-04-26 14:06 | 40.78681 | -111.97469 | 4233 ft | 20 kts | 186° |
| 2026-04-26 14:06 | 40.78550 | -111.97519 | 4231 ft | 18 kts | 198° |
| 2026-04-26 14:06 | 40.78467 | -111.97591 | 4230 ft | 9 kts | 249° |
| 2026-04-26 14:06 | 40.78470 | -111.97640 | 4229 ft | 3 kts | 324° |
| 2026-04-26 14:07 | 40.78484 | -111.97645 | 4230 ft | 1 kts | 349° |
| 2026-04-26 14:07 | 40.78490 | -111.97646 | 4230 ft | 0 kts | 349° |
| 2026-04-26 14:07 | 40.78513 | -111.97651 | 4231 ft | 8 kts | 352° |
| 2026-04-26 14:07 | 40.78569 | -111.97659 | 4234 ft | 7 kts | 355° |
| 2026-04-26 14:08 | 40.78609 | -111.97663 | 4235 ft | 5 kts | 355° |
| 2026-04-26 14:08 | 40.78644 | -111.97668 | 4235 ft | 5 kts | 354° |
| 2026-04-26 14:08 | 40.78683 | -111.97673 | 4235 ft | 6 kts | 355° |
| 2026-04-26 14:08 | 40.78736 | -111.97678 | 4235 ft | 9 kts | 355° |
| 2026-04-26 14:09 | 40.78799 | -111.97687 | 4235 ft | 9 kts | 346° |
| 2026-04-26 14:09 | 40.78829 | -111.97747 | 4235 ft | 9 kts | 272° |
| 2026-04-26 14:09 | 40.78827 | -111.97825 | 4237 ft | 8 kts | 259° |
| 2026-04-26 14:09 | 40.78816 | -111.97902 | 4237 ft | 9 kts | 261° |
| 2026-04-26 14:10 | 40.78807 | -111.97994 | 4236 ft | 11 kts | 264° |
| 2026-04-26 14:10 | 40.78800 | -111.98107 | 4234 ft | 13 kts | 265° |
| 2026-04-26 14:10 | 40.78793 | -111.98221 | 4232 ft | 10 kts | 265° |
| 2026-04-26 14:10 | 40.78787 | -111.98293 | 4234 ft | 7 kts | 264° |
| 2026-04-26 14:11 | 40.78779 | -111.98409 | 4235 ft | 4 kts | 265° |
| 2026-04-26 14:11 | 40.78777 | -111.98440 | 4236 ft | 3 kts | 265° |
| 2026-04-26 14:11 | 40.78779 | -111.98474 | 4236 ft | 5 kts | 299° |
| 2026-04-26 14:12 | 40.78807 | -111.98486 | 4236 ft | 3 kts | 2° |
| 2026-04-26 14:12 | 40.78832 | -111.98482 | 4236 ft | 3 kts | 8° |
| 2026-04-26 14:12 | 40.78844 | -111.98479 | 4236 ft | 0 kts | 9° |
| 2026-04-26 14:12 | 40.78846 | -111.98479 | 4236 ft | 0 kts | 9° |
| 2026-04-26 14:13 | 40.78845 | -111.98479 | 4236 ft | 0 kts | 9° |